sensor_id;sensor_type;location;lat;lon;timestamp;temperature;humidity
10344;DHT22;5217;43.960;10.954;2023-03-29T00:00:55;15.70;56.70
10344;DHT22;5217;43.960;10.954;2023-03-29T00:03:26;15.60;56.60
10344;DHT22;5217;43.960;10.954;2023-03-29T00:05:59;15.60;56.70
10344;DHT22;5217;43.960;10.954;2023-03-29T00:08:30;15.60;56.90
10344;DHT22;5217;43.960;10.954;2023-03-29T00:11:00;15.60;56.90
10344;DHT22;5217;43.960;10.954;2023-03-29T00:13:29;15.60;57.10
10344;DHT22;5217;43.960;10.954;2023-03-29T00:15:57;15.50;57.00
10344;DHT22;5217;43.960;10.954;2023-03-29T00:18:26;15.50;57.00
10344;DHT22;5217;43.960;10.954;2023-03-29T00:20:54;15.50;57.10
10344;DHT22;5217;43.960;10.954;2023-03-29T00:23:23;15.50;57.10
10344;DHT22;5217;43.960;10.954;2023-03-29T00:25:54;15.40;57.20
10344;DHT22;5217;43.960;10.954;2023-03-29T00:28:22;15.40;57.30
10344;DHT22;5217;43.960;10.954;2023-03-29T00:30:51;15.40;57.40
10344;DHT22;5217;43.960;10.954;2023-03-29T00:33:20;15.40;57.50
10344;DHT22;5217;43.960;10.954;2023-03-29T00:35:50;15.30;57.50
10344;DHT22;5217;43.960;10.954;2023-03-29T00:38:19;15.30;58.40
10344;DHT22;5217;43.960;10.954;2023-03-29T00:40:47;15.30;58.40
10344;DHT22;5217;43.960;10.954;2023-03-29T00:43:17;15.30;58.10
10344;DHT22;5217;43.960;10.954;2023-03-29T00:45:46;15.20;58.20
10344;DHT22;5217;43.960;10.954;2023-03-29T00:48:16;15.20;58.20
10344;DHT22;5217;43.960;10.954;2023-03-29T00:50:49;15.20;58.70
10344;DHT22;5217;43.960;10.954;2023-03-29T00:53:20;15.20;58.80
10344;DHT22;5217;43.960;10.954;2023-03-29T00:55:55;15.10;58.60
10344;DHT22;5217;43.960;10.954;2023-03-29T00:58:29;15.10;58.60
10344;DHT22;5217;43.960;10.954;2023-03-29T01:01:02;15.10;58.50
10344;DHT22;5217;43.960;10.954;2023-03-29T01:03:34;15.00;58.30
10344;DHT22;5217;43.960;10.954;2023-03-29T01:06:08;15.00;58.30
10344;DHT22;5217;43.960;10.954;2023-03-29T01:08:40;15.00;58.50
10344;DHT22;5217;43.960;10.954;2023-03-29T01:11:15;15.00;58.50
10344;DHT22;5217;43.960;10.954;2023-03-29T01:13:50;15.00;58.50
10344;DHT22;5217;43.960;10.954;2023-03-29T01:16:20;14.90;58.40
10344;DHT22;5217;43.960;10.954;2023-03-29T01:18:50;15.00;58.50
10344;DHT22;5217;43.960;10.954;2023-03-29T01:21:21;14.90;58.60
10344;DHT22;5217;43.960;10.954;2023-03-29T01:24:06;14.90;58.70
10344;DHT22;5217;43.960;10.954;2023-03-29T01:26:46;14.80;58.80
10344;DHT22;5217;43.960;10.954;2023-03-29T01:29:21;14.90;58.80
10344;DHT22;5217;43.960;10.954;2023-03-29T01:31:56;14.90;58.80
10344;DHT22;5217;43.960;10.954;2023-03-29T01:34:31;14.80;58.70
10344;DHT22;5217;43.960;10.954;2023-03-29T01:37:04;14.80;58.80
10344;DHT22;5217;43.960;10.954;2023-03-29T01:39:35;14.80;58.90
10344;DHT22;5217;43.960;10.954;2023-03-29T01:42:20;14.80;58.80
10344;DHT22;5217;43.960;10.954;2023-03-29T01:44:57;14.70;58.80
10344;DHT22;5217;43.960;10.954;2023-03-29T01:47:33;14.70;59.00
10344;DHT22;5217;43.960;10.954;2023-03-29T01:50:10;14.70;59.20
10344;DHT22;5217;43.960;10.954;2023-03-29T01:52:44;14.70;59.20
10344;DHT22;5217;43.960;10.954;2023-03-29T01:55:16;14.70;59.20
10344;DHT22;5217;43.960;10.954;2023-03-29T01:57:46;14.70;59.10
10344;DHT22;5217;43.960;10.954;2023-03-29T02:00:20;14.70;59.10
10344;DHT22;5217;43.960;10.954;2023-03-29T02:02:51;14.70;59.20
10344;DHT22;5217;43.960;10.954;2023-03-29T02:05:22;14.70;59.20
10344;DHT22;5217;43.960;10.954;2023-03-29T02:07:53;14.70;59.20
10344;DHT22;5217;43.960;10.954;2023-03-29T02:10:22;14.60;59.20
10344;DHT22;5217;43.960;10.954;2023-03-29T02:12:51;14.60;59.30
10344;DHT22;5217;43.960;10.954;2023-03-29T02:15:21;14.60;59.50
10344;DHT22;5217;43.960;10.954;2023-03-29T02:17:50;14.60;59.60
10344;DHT22;5217;43.960;10.954;2023-03-29T02:20:22;14.50;59.60
10344;DHT22;5217;43.960;10.954;2023-03-29T02:22:56;14.50;59.70
10344;DHT22;5217;43.960;10.954;2023-03-29T02:25:28;14.50;59.80
10344;DHT22;5217;43.960;10.954;2023-03-29T02:27:56;14.50;59.80
10344;DHT22;5217;43.960;10.954;2023-03-29T02:30:30;14.50;59.90
10344;DHT22;5217;43.960;10.954;2023-03-29T02:33:05;14.40;59.70
10344;DHT22;5217;43.960;10.954;2023-03-29T02:35:40;14.40;59.70
10344;DHT22;5217;43.960;10.954;2023-03-29T02:38:12;14.40;59.70
10344;DHT22;5217;43.960;10.954;2023-03-29T02:40:41;14.40;60.00
10344;DHT22;5217;43.960;10.954;2023-03-29T02:43:11;14.40;60.10
10344;DHT22;5217;43.960;10.954;2023-03-29T02:45:43;14.30;60.00
10344;DHT22;5217;43.960;10.954;2023-03-29T02:48:16;14.30;60.00
10344;DHT22;5217;43.960;10.954;2023-03-29T02:50:47;14.30;60.00
10344;DHT22;5217;43.960;10.954;2023-03-29T02:53:18;14.30;60.00
10344;DHT22;5217;43.960;10.954;2023-03-29T02:55:48;14.20;60.00
10344;DHT22;5217;43.960;10.954;2023-03-29T02:58:17;14.20;60.00
10344;DHT22;5217;43.960;10.954;2023-03-29T03:00:48;14.20;59.90
10344;DHT22;5217;43.960;10.954;2023-03-29T03:03:16;14.20;59.90
10344;DHT22;5217;43.960;10.954;2023-03-29T03:05:44;14.20;60.00
10344;DHT22;5217;43.960;10.954;2023-03-29T03:08:13;14.20;60.40
10344;DHT22;5217;43.960;10.954;2023-03-29T03:10:42;14.20;60.40
10344;DHT22;5217;43.960;10.954;2023-03-29T03:13:12;14.10;60.40
10344;DHT22;5217;43.960;10.954;2023-03-29T03:15:41;14.10;60.60
10344;DHT22;5217;43.960;10.954;2023-03-29T03:18:16;14.10;60.70
10344;DHT22;5217;43.960;10.954;2023-03-29T03:20:54;14.10;60.60
10344;DHT22;5217;43.960;10.954;2023-03-29T03:23:22;14.10;60.80
10344;DHT22;5217;43.960;10.954;2023-03-29T03:25:51;14.00;60.60
10344;DHT22;5217;43.960;10.954;2023-03-29T03:28:20;14.00;60.70
10344;DHT22;5217;43.960;10.954;2023-03-29T03:30:50;14.00;60.80
10344;DHT22;5217;43.960;10.954;2023-03-29T03:33:19;14.00;60.80
10344;DHT22;5217;43.960;10.954;2023-03-29T03:35:48;14.00;60.80
10344;DHT22;5217;43.960;10.954;2023-03-29T03:38:16;13.90;61.10
10344;DHT22;5217;43.960;10.954;2023-03-29T03:40:52;13.90;61.30
10344;DHT22;5217;43.960;10.954;2023-03-29T03:43:20;13.90;61.30
10344;DHT22;5217;43.960;10.954;2023-03-29T03:45:49;13.90;61.30
10344;DHT22;5217;43.960;10.954;2023-03-29T03:48:19;13.80;61.40
10344;DHT22;5217;43.960;10.954;2023-03-29T03:50:48;13.80;62.10
10344;DHT22;5217;43.960;10.954;2023-03-29T03:53:17;13.80;61.40
10344;DHT22;5217;43.960;10.954;2023-03-29T03:55:47;13.80;61.80
10344;DHT22;5217;43.960;10.954;2023-03-29T03:58:15;13.80;62.00
10344;DHT22;5217;43.960;10.954;2023-03-29T04:00:46;13.80;62.30
10344;DHT22;5217;43.960;10.954;2023-03-29T04:03:14;13.80;62.30
10344;DHT22;5217;43.960;10.954;2023-03-29T04:05:46;13.70;62.40
10344;DHT22;5217;43.960;10.954;2023-03-29T04:08:14;13.70;62.50
10344;DHT22;5217;43.960;10.954;2023-03-29T04:10:50;13.70;62.60
10344;DHT22;5217;43.960;10.954;2023-03-29T04:13:20;13.70;62.70
10344;DHT22;5217;43.960;10.954;2023-03-29T04:15:49;13.70;62.80
10344;DHT22;5217;43.960;10.954;2023-03-29T04:18:20;13.60;62.70
10344;DHT22;5217;43.960;10.954;2023-03-29T04:20:50;13.70;62.80
10344;DHT22;5217;43.960;10.954;2023-03-29T04:23:18;13.70;63.00
10344;DHT22;5217;43.960;10.954;2023-03-29T04:25:47;13.60;63.00
10344;DHT22;5217;43.960;10.954;2023-03-29T04:28:15;13.60;63.10
10344;DHT22;5217;43.960;10.954;2023-03-29T04:30:44;13.60;63.20
10344;DHT22;5217;43.960;10.954;2023-03-29T04:33:14;13.60;63.00
10344;DHT22;5217;43.960;10.954;2023-03-29T04:35:42;13.60;63.10
10344;DHT22;5217;43.960;10.954;2023-03-29T04:38:12;13.60;63.10
10344;DHT22;5217;43.960;10.954;2023-03-29T04:40:40;13.50;63.10
10344;DHT22;5217;43.960;10.954;2023-03-29T04:43:10;13.50;63.20
10344;DHT22;5217;43.960;10.954;2023-03-29T04:45:38;13.50;63.10
10344;DHT22;5217;43.960;10.954;2023-03-29T04:48:06;13.50;63.40
10344;DHT22;5217;43.960;10.954;2023-03-29T04:50:35;13.50;63.60
10344;DHT22;5217;43.960;10.954;2023-03-29T04:53:03;13.40;63.60
10344;DHT22;5217;43.960;10.954;2023-03-29T04:55:34;13.50;63.70
10344;DHT22;5217;43.960;10.954;2023-03-29T04:58:02;13.50;63.80
10344;DHT22;5217;43.960;10.954;2023-03-29T05:00:31;13.40;63.60
10344;DHT22;5217;43.960;10.954;2023-03-29T05:02:59;13.40;63.90
10344;DHT22;5217;43.960;10.954;2023-03-29T05:05:28;13.40;64.00
10344;DHT22;5217;43.960;10.954;2023-03-29T05:07:56;13.40;64.20
10344;DHT22;5217;43.960;10.954;2023-03-29T05:10:24;13.40;64.40
10344;DHT22;5217;43.960;10.954;2023-03-29T05:12:54;13.30;64.60
10344;DHT22;5217;43.960;10.954;2023-03-29T05:15:22;13.30;64.80
10344;DHT22;5217;43.960;10.954;2023-03-29T05:17:51;13.30;65.00
10344;DHT22;5217;43.960;10.954;2023-03-29T05:20:19;13.30;65.00
10344;DHT22;5217;43.960;10.954;2023-03-29T05:22:48;13.30;64.70
10344;DHT22;5217;43.960;10.954;2023-03-29T05:25:17;13.20;64.80
10344;DHT22;5217;43.960;10.954;2023-03-29T05:27:45;13.20;65.30
10344;DHT22;5217;43.960;10.954;2023-03-29T05:30:15;13.20;65.30
10344;DHT22;5217;43.960;10.954;2023-03-29T05:32:44;13.20;65.50
10344;DHT22;5217;43.960;10.954;2023-03-29T05:35:12;13.20;65.60
10344;DHT22;5217;43.960;10.954;2023-03-29T05:37:41;13.20;66.00
10344;DHT22;5217;43.960;10.954;2023-03-29T05:40:10;13.10;66.10
10344;DHT22;5217;43.960;10.954;2023-03-29T05:42:39;13.20;66.30
10344;DHT22;5217;43.960;10.954;2023-03-29T05:45:08;13.20;66.40
10344;DHT22;5217;43.960;10.954;2023-03-29T05:47:39;13.20;66.60
10344;DHT22;5217;43.960;10.954;2023-03-29T05:50:08;13.10;66.80
10344;DHT22;5217;43.960;10.954;2023-03-29T05:52:37;13.20;67.20
10344;DHT22;5217;43.960;10.954;2023-03-29T05:55:07;13.20;67.40
10344;DHT22;5217;43.960;10.954;2023-03-29T05:57:36;13.20;67.50
10344;DHT22;5217;43.960;10.954;2023-03-29T06:00:06;13.20;67.80
10344;DHT22;5217;43.960;10.954;2023-03-29T06:02:44;13.20;68.10
10344;DHT22;5217;43.960;10.954;2023-03-29T06:05:13;13.20;68.30
10344;DHT22;5217;43.960;10.954;2023-03-29T06:07:41;13.20;68.50
10344;DHT22;5217;43.960;10.954;2023-03-29T06:10:10;13.20;68.70
10344;DHT22;5217;43.960;10.954;2023-03-29T06:12:38;13.10;68.90
10344;DHT22;5217;43.960;10.954;2023-03-29T06:15:07;13.10;69.20
10344;DHT22;5217;43.960;10.954;2023-03-29T06:17:36;13.10;69.40
10344;DHT22;5217;43.960;10.954;2023-03-29T06:20:08;13.10;69.60
10344;DHT22;5217;43.960;10.954;2023-03-29T06:22:37;13.10;69.90
10344;DHT22;5217;43.960;10.954;2023-03-29T06:25:07;13.20;70.30
10344;DHT22;5217;43.960;10.954;2023-03-29T06:27:37;13.20;70.70
10344;DHT22;5217;43.960;10.954;2023-03-29T06:30:06;13.20;70.80
10344;DHT22;5217;43.960;10.954;2023-03-29T06:32:35;13.20;71.30
10344;DHT22;5217;43.960;10.954;2023-03-29T06:35:04;13.20;71.60
10344;DHT22;5217;43.960;10.954;2023-03-29T06:37:34;13.20;71.20
10344;DHT22;5217;43.960;10.954;2023-03-29T06:40:02;13.20;70.50
10344;DHT22;5217;43.960;10.954;2023-03-29T06:42:35;13.20;70.70
10344;DHT22;5217;43.960;10.954;2023-03-29T06:45:04;13.20;70.40
10344;DHT22;5217;43.960;10.954;2023-03-29T06:47:32;13.30;69.80
10344;DHT22;5217;43.960;10.954;2023-03-29T06:50:01;13.30;70.80
10344;DHT22;5217;43.960;10.954;2023-03-29T06:52:29;13.20;70.20
10344;DHT22;5217;43.960;10.954;2023-03-29T06:54:59;13.30;68.50
10344;DHT22;5217;43.960;10.954;2023-03-29T06:57:27;13.30;66.10
10344;DHT22;5217;43.960;10.954;2023-03-29T06:59:56;13.30;64.60
10344;DHT22;5217;43.960;10.954;2023-03-29T07:02:24;13.20;64.20
10344;DHT22;5217;43.960;10.954;2023-03-29T07:04:53;13.30;65.40
10344;DHT22;5217;43.960;10.954;2023-03-29T07:07:22;13.30;65.70
10344;DHT22;5217;43.960;10.954;2023-03-29T07:09:53;13.30;65.70
10344;DHT22;5217;43.960;10.954;2023-03-29T07:12:23;13.30;65.40
10344;DHT22;5217;43.960;10.954;2023-03-29T07:14:52;13.30;65.70
10344;DHT22;5217;43.960;10.954;2023-03-29T07:17:20;13.40;65.80
10344;DHT22;5217;43.960;10.954;2023-03-29T07:19:48;13.40;65.60
10344;DHT22;5217;43.960;10.954;2023-03-29T07:22:17;13.50;65.60
10344;DHT22;5217;43.960;10.954;2023-03-29T07:24:45;13.50;65.60
10344;DHT22;5217;43.960;10.954;2023-03-29T07:27:15;13.50;65.00
10344;DHT22;5217;43.960;10.954;2023-03-29T07:29:45;13.60;65.70
10344;DHT22;5217;43.960;10.954;2023-03-29T07:32:15;13.60;65.90
10344;DHT22;5217;43.960;10.954;2023-03-29T07:34:43;13.60;65.50
10344;DHT22;5217;43.960;10.954;2023-03-29T07:37:12;13.70;65.80
10344;DHT22;5217;43.960;10.954;2023-03-29T07:39:41;13.70;66.40
10344;DHT22;5217;43.960;10.954;2023-03-29T07:42:09;13.70;66.90
10344;DHT22;5217;43.960;10.954;2023-03-29T07:44:37;13.80;66.30
10344;DHT22;5217;43.960;10.954;2023-03-29T07:47:08;13.80;66.00
10344;DHT22;5217;43.960;10.954;2023-03-29T07:49:37;13.80;66.90
10344;DHT22;5217;43.960;10.954;2023-03-29T07:52:05;13.80;67.90
10344;DHT22;5217;43.960;10.954;2023-03-29T07:54:34;13.80;68.40
10344;DHT22;5217;43.960;10.954;2023-03-29T07:57:02;13.80;68.40
10344;DHT22;5217;43.960;10.954;2023-03-29T07:59:30;13.80;68.50
10344;DHT22;5217;43.960;10.954;2023-03-29T08:01:59;13.90;68.70
10344;DHT22;5217;43.960;10.954;2023-03-29T08:04:28;13.90;69.40
10344;DHT22;5217;43.960;10.954;2023-03-29T08:06:57;14.00;69.30
10344;DHT22;5217;43.960;10.954;2023-03-29T08:09:26;14.00;69.30
10344;DHT22;5217;43.960;10.954;2023-03-29T08:11:54;14.00;69.70
10344;DHT22;5217;43.960;10.954;2023-03-29T08:14:23;14.00;69.60
10344;DHT22;5217;43.960;10.954;2023-03-29T08:16:51;14.10;69.60
10344;DHT22;5217;43.960;10.954;2023-03-29T08:19:20;14.10;69.70
10344;DHT22;5217;43.960;10.954;2023-03-29T08:21:49;14.10;70.10
10344;DHT22;5217;43.960;10.954;2023-03-29T08:24:18;14.10;70.50
10344;DHT22;5217;43.960;10.954;2023-03-29T08:26:47;14.20;70.50
10344;DHT22;5217;43.960;10.954;2023-03-29T08:29:15;14.20;70.60
10344;DHT22;5217;43.960;10.954;2023-03-29T08:31:44;14.20;71.00
10344;DHT22;5217;43.960;10.954;2023-03-29T08:34:12;14.20;70.50
10344;DHT22;5217;43.960;10.954;2023-03-29T08:36:40;14.30;70.70
10344;DHT22;5217;43.960;10.954;2023-03-29T08:39:10;14.30;70.80
10344;DHT22;5217;43.960;10.954;2023-03-29T08:41:47;14.30;70.80
10344;DHT22;5217;43.960;10.954;2023-03-29T08:44:23;14.40;70.40
10344;DHT22;5217;43.960;10.954;2023-03-29T08:47:02;14.40;71.00
10344;DHT22;5217;43.960;10.954;2023-03-29T08:49:35;14.40;70.70
10344;DHT22;5217;43.960;10.954;2023-03-29T08:52:13;14.50;70.90
10344;DHT22;5217;43.960;10.954;2023-03-29T08:54:46;14.50;71.10
10344;DHT22;5217;43.960;10.954;2023-03-29T08:57:17;14.60;70.80
10344;DHT22;5217;43.960;10.954;2023-03-29T08:59:48;14.60;70.00
10344;DHT22;5217;43.960;10.954;2023-03-29T09:02:22;14.60;68.10
10344;DHT22;5217;43.960;10.954;2023-03-29T09:04:52;14.70;67.50
10344;DHT22;5217;43.960;10.954;2023-03-29T09:07:22;14.70;66.70
10344;DHT22;5217;43.960;10.954;2023-03-29T09:09:54;14.70;64.70
10344;DHT22;5217;43.960;10.954;2023-03-29T09:12:31;14.70;64.70
10344;DHT22;5217;43.960;10.954;2023-03-29T09:15:09;14.80;64.80
10344;DHT22;5217;43.960;10.954;2023-03-29T09:17:46;14.80;64.60
10344;DHT22;5217;43.960;10.954;2023-03-29T09:20:24;14.80;64.10
10344;DHT22;5217;43.960;10.954;2023-03-29T09:23:04;14.70;63.70
10344;DHT22;5217;43.960;10.954;2023-03-29T09:25:46;14.70;64.20
10344;DHT22;5217;43.960;10.954;2023-03-29T09:28:27;14.70;64.20
10344;DHT22;5217;43.960;10.954;2023-03-29T09:31:02;14.70;65.20
10344;DHT22;5217;43.960;10.954;2023-03-29T09:33:38;14.70;65.20
10344;DHT22;5217;43.960;10.954;2023-03-29T09:36:10;14.70;65.30
10344;DHT22;5217;43.960;10.954;2023-03-29T09:38:41;14.70;65.10
10344;DHT22;5217;43.960;10.954;2023-03-29T09:41:19;14.70;65.30
10344;DHT22;5217;43.960;10.954;2023-03-29T09:43:49;14.80;65.70
10344;DHT22;5217;43.960;10.954;2023-03-29T09:46:21;14.80;65.50
10344;DHT22;5217;43.960;10.954;2023-03-29T09:48:52;14.90;65.70
10344;DHT22;5217;43.960;10.954;2023-03-29T09:51:25;14.90;66.20
10344;DHT22;5217;43.960;10.954;2023-03-29T09:53:54;15.00;66.90
10344;DHT22;5217;43.960;10.954;2023-03-29T09:56:24;15.10;67.60
10344;DHT22;5217;43.960;10.954;2023-03-29T09:58:52;15.10;68.20
10344;DHT22;5217;43.960;10.954;2023-03-29T10:01:21;15.10;68.60
10344;DHT22;5217;43.960;10.954;2023-03-29T10:03:51;15.20;68.30
10344;DHT22;5217;43.960;10.954;2023-03-29T10:06:20;15.20;68.10
10344;DHT22;5217;43.960;10.954;2023-03-29T10:08:52;15.20;68.00
10344;DHT22;5217;43.960;10.954;2023-03-29T10:11:30;15.20;68.10
10344;DHT22;5217;43.960;10.954;2023-03-29T10:14:00;15.20;67.90
10344;DHT22;5217;43.960;10.954;2023-03-29T10:16:33;15.20;68.10
10344;DHT22;5217;43.960;10.954;2023-03-29T10:19:18;15.20;68.10
10344;DHT22;5217;43.960;10.954;2023-03-29T10:21:47;15.20;68.30
10344;DHT22;5217;43.960;10.954;2023-03-29T10:24:18;15.20;68.50
10344;DHT22;5217;43.960;10.954;2023-03-29T10:26:51;15.10;68.60
10344;DHT22;5217;43.960;10.954;2023-03-29T10:29:22;15.10;69.50
10344;DHT22;5217;43.960;10.954;2023-03-29T10:31:51;15.10;70.30
10344;DHT22;5217;43.960;10.954;2023-03-29T10:34:21;15.00;70.80
10344;DHT22;5217;43.960;10.954;2023-03-29T10:36:56;15.00;71.50
10344;DHT22;5217;43.960;10.954;2023-03-29T10:39:27;15.00;72.70
10344;DHT22;5217;43.960;10.954;2023-03-29T10:41:58;15.00;73.00
10344;DHT22;5217;43.960;10.954;2023-03-29T10:44:29;15.00;73.60
10344;DHT22;5217;43.960;10.954;2023-03-29T10:47:12;15.00;73.60
10344;DHT22;5217;43.960;10.954;2023-03-29T10:49:43;14.90;74.00
10344;DHT22;5217;43.960;10.954;2023-03-29T10:52:14;15.00;74.60
10344;DHT22;5217;43.960;10.954;2023-03-29T10:54:43;14.90;74.50
10344;DHT22;5217;43.960;10.954;2023-03-29T10:57:17;14.90;74.60
10344;DHT22;5217;43.960;10.954;2023-03-29T10:59:54;14.90;74.70
10344;DHT22;5217;43.960;10.954;2023-03-29T11:05:26;15.00;75.70
10344;DHT22;5217;43.960;10.954;2023-03-29T11:08:11;15.10;75.70
10344;DHT22;5217;43.960;10.954;2023-03-29T11:10:50;15.10;75.50
10344;DHT22;5217;43.960;10.954;2023-03-29T11:13:27;15.20;75.90
10344;DHT22;5217;43.960;10.954;2023-03-29T11:16:08;15.40;76.50
10344;DHT22;5217;43.960;10.954;2023-03-29T11:18:59;15.60;76.70
10344;DHT22;5217;43.960;10.954;2023-03-29T11:21:33;15.90;76.20
10344;DHT22;5217;43.960;10.954;2023-03-29T11:24:25;16.00;76.10
10344;DHT22;5217;43.960;10.954;2023-03-29T11:27:03;16.30;77.70
10344;DHT22;5217;43.960;10.954;2023-03-29T11:29:42;16.50;78.00
10344;DHT22;5217;43.960;10.954;2023-03-29T11:32:16;16.60;79.00
10344;DHT22;5217;43.960;10.954;2023-03-29T11:34:57;16.70;77.60
10344;DHT22;5217;43.960;10.954;2023-03-29T11:37:33;16.80;77.90
10344;DHT22;5217;43.960;10.954;2023-03-29T11:40:15;16.80;77.90
10344;DHT22;5217;43.960;10.954;2023-03-29T11:42:49;16.80;78.30
10344;DHT22;5217;43.960;10.954;2023-03-29T11:45:27;16.90;78.30
10344;DHT22;5217;43.960;10.954;2023-03-29T11:47:57;17.10;78.70
10344;DHT22;5217;43.960;10.954;2023-03-29T11:50:31;17.30;79.80
10344;DHT22;5217;43.960;10.954;2023-03-29T11:53:09;17.50;79.60
10344;DHT22;5217;43.960;10.954;2023-03-29T11:55:40;17.60;77.80
10344;DHT22;5217;43.960;10.954;2023-03-29T11:58:14;17.90;78.40
10344;DHT22;5217;43.960;10.954;2023-03-29T12:00:47;18.00;77.80
10344;DHT22;5217;43.960;10.954;2023-03-29T12:03:23;18.10;76.90
10344;DHT22;5217;43.960;10.954;2023-03-29T12:06:00;18.30;77.10
10344;DHT22;5217;43.960;10.954;2023-03-29T12:08:36;18.20;75.20
10344;DHT22;5217;43.960;10.954;2023-03-29T12:11:08;18.10;74.50
10344;DHT22;5217;43.960;10.954;2023-03-29T12:13:43;17.90;74.60
10344;DHT22;5217;43.960;10.954;2023-03-29T12:16:16;17.90;75.00
10344;DHT22;5217;43.960;10.954;2023-03-29T12:18:48;17.80;75.20
10344;DHT22;5217;43.960;10.954;2023-03-29T12:21:19;17.70;76.00
10344;DHT22;5217;43.960;10.954;2023-03-29T12:23:49;17.70;76.50
10344;DHT22;5217;43.960;10.954;2023-03-29T12:26:27;17.60;77.20
10344;DHT22;5217;43.960;10.954;2023-03-29T12:29:09;17.50;77.50
10344;DHT22;5217;43.960;10.954;2023-03-29T12:31:49;17.40;77.80
10344;DHT22;5217;43.960;10.954;2023-03-29T12:34:32;17.40;77.90
10344;DHT22;5217;43.960;10.954;2023-03-29T12:37:22;17.40;78.10
10344;DHT22;5217;43.960;10.954;2023-03-29T12:39:53;17.70;79.40
10344;DHT22;5217;43.960;10.954;2023-03-29T12:42:28;17.80;78.50
10344;DHT22;5217;43.960;10.954;2023-03-29T12:44:58;17.80;78.30
10344;DHT22;5217;43.960;10.954;2023-03-29T12:47:35;17.90;78.40
10344;DHT22;5217;43.960;10.954;2023-03-29T12:50:22;17.90;77.80
10344;DHT22;5217;43.960;10.954;2023-03-29T12:53:04;18.00;78.20
10344;DHT22;5217;43.960;10.954;2023-03-29T12:55:47;18.10;78.00
10344;DHT22;5217;43.960;10.954;2023-03-29T12:58:41;18.00;77.80
10344;DHT22;5217;43.960;10.954;2023-03-29T13:01:22;17.90;78.60
10344;DHT22;5217;43.960;10.954;2023-03-29T13:03:55;17.80;79.30
10344;DHT22;5217;43.960;10.954;2023-03-29T13:06:30;17.70;78.90
10344;DHT22;5217;43.960;10.954;2023-03-29T13:09:01;17.60;79.00
10344;DHT22;5217;43.960;10.954;2023-03-29T13:11:32;17.50;79.00
10344;DHT22;5217;43.960;10.954;2023-03-29T13:14:07;17.40;79.30
10344;DHT22;5217;43.960;10.954;2023-03-29T13:16:39;17.30;80.10
10344;DHT22;5217;43.960;10.954;2023-03-29T13:19:25;17.30;80.00
10344;DHT22;5217;43.960;10.954;2023-03-29T13:22:08;17.40;81.30
10344;DHT22;5217;43.960;10.954;2023-03-29T13:24:56;17.90;80.90
10344;DHT22;5217;43.960;10.954;2023-03-29T13:27:36;18.60;81.20
10344;DHT22;5217;43.960;10.954;2023-03-29T13:30:23;19.10;78.70
10344;DHT22;5217;43.960;10.954;2023-03-29T13:35:50;18.90;75.40
10344;DHT22;5217;43.960;10.954;2023-03-29T13:38:22;18.70;75.80
10344;DHT22;5217;43.960;10.954;2023-03-29T13:41:02;18.50;75.50
10344;DHT22;5217;43.960;10.954;2023-03-29T13:43:35;18.50;76.40
10344;DHT22;5217;43.960;10.954;2023-03-29T13:46:21;18.30;76.10
10344;DHT22;5217;43.960;10.954;2023-03-29T13:49:04;18.30;77.10
10344;DHT22;5217;43.960;10.954;2023-03-29T13:51:39;18.20;77.50
10344;DHT22;5217;43.960;10.954;2023-03-29T13:54:19;18.20;78.10
10344;DHT22;5217;43.960;10.954;2023-03-29T13:56:57;18.20;78.60
10344;DHT22;5217;43.960;10.954;2023-03-29T13:59:34;18.10;78.50
10344;DHT22;5217;43.960;10.954;2023-03-29T14:02:05;18.20;78.70
10344;DHT22;5217;43.960;10.954;2023-03-29T14:04:37;18.20;79.10
10344;DHT22;5217;43.960;10.954;2023-03-29T14:07:12;18.30;78.80
10344;DHT22;5217;43.960;10.954;2023-03-29T14:09:44;18.30;77.30
10344;DHT22;5217;43.960;10.954;2023-03-29T14:12:14;18.30;78.00
10344;DHT22;5217;43.960;10.954;2023-03-29T14:14:44;18.30;78.10
10344;DHT22;5217;43.960;10.954;2023-03-29T14:17:24;18.20;78.20
10344;DHT22;5217;43.960;10.954;2023-03-29T14:19:56;18.10;78.30
10344;DHT22;5217;43.960;10.954;2023-03-29T14:22:29;18.10;77.90
10344;DHT22;5217;43.960;10.954;2023-03-29T14:25:04;18.00;78.60
10344;DHT22;5217;43.960;10.954;2023-03-29T14:27:34;17.90;79.00
10344;DHT22;5217;43.960;10.954;2023-03-29T14:30:20;17.80;79.00
10344;DHT22;5217;43.960;10.954;2023-03-29T14:32:49;17.80;78.90
10344;DHT22;5217;43.960;10.954;2023-03-29T14:35:18;17.80;78.90
10344;DHT22;5217;43.960;10.954;2023-03-29T14:37:48;17.70;79.60
10344;DHT22;5217;43.960;10.954;2023-03-29T14:40:18;17.70;80.00
10344;DHT22;5217;43.960;10.954;2023-03-29T14:42:47;17.70;80.00
10344;DHT22;5217;43.960;10.954;2023-03-29T14:45:20;17.60;80.20
10344;DHT22;5217;43.960;10.954;2023-03-29T14:47:51;17.70;80.40
10344;DHT22;5217;43.960;10.954;2023-03-29T14:50:24;17.60;81.00
10344;DHT22;5217;43.960;10.954;2023-03-29T14:52:56;17.60;81.30
10344;DHT22;5217;43.960;10.954;2023-03-29T14:55:26;17.60;81.00
10344;DHT22;5217;43.960;10.954;2023-03-29T14:57:56;17.50;81.10
10344;DHT22;5217;43.960;10.954;2023-03-29T15:00:28;17.50;81.10
10344;DHT22;5217;43.960;10.954;2023-03-29T15:02:59;17.50;80.90
10344;DHT22;5217;43.960;10.954;2023-03-29T15:05:33;17.40;81.10
10344;DHT22;5217;43.960;10.954;2023-03-29T15:08:06;17.40;81.60
10344;DHT22;5217;43.960;10.954;2023-03-29T15:10:38;17.40;81.80
10344;DHT22;5217;43.960;10.954;2023-03-29T15:13:13;17.30;81.90
10344;DHT22;5217;43.960;10.954;2023-03-29T15:15:43;17.30;82.60
10344;DHT22;5217;43.960;10.954;2023-03-29T15:18:14;17.30;82.70
10344;DHT22;5217;43.960;10.954;2023-03-29T15:20:43;17.30;82.80
10344;DHT22;5217;43.960;10.954;2023-03-29T15:23:23;17.30;83.20
10344;DHT22;5217;43.960;10.954;2023-03-29T15:25:54;17.30;83.80
10344;DHT22;5217;43.960;10.954;2023-03-29T15:28:27;17.30;83.80
10344;DHT22;5217;43.960;10.954;2023-03-29T15:30:59;17.30;83.70
10344;DHT22;5217;43.960;10.954;2023-03-29T15:33:34;17.70;83.90
10344;DHT22;5217;43.960;10.954;2023-03-29T15:36:05;18.40;83.40
10344;DHT22;5217;43.960;10.954;2023-03-29T15:38:36;18.90;81.40
10344;DHT22;5217;43.960;10.954;2023-03-29T15:41:11;18.70;81.00
10344;DHT22;5217;43.960;10.954;2023-03-29T15:43:41;18.50;81.90
10344;DHT22;5217;43.960;10.954;2023-03-29T15:46:12;18.30;82.20
10344;DHT22;5217;43.960;10.954;2023-03-29T15:48:40;18.20;82.60
10344;DHT22;5217;43.960;10.954;2023-03-29T15:51:10;18.00;83.00
10344;DHT22;5217;43.960;10.954;2023-03-29T15:53:40;18.00;83.20
10344;DHT22;5217;43.960;10.954;2023-03-29T15:56:14;17.90;82.90
10344;DHT22;5217;43.960;10.954;2023-03-29T15:58:43;17.90;83.60
10344;DHT22;5217;43.960;10.954;2023-03-29T16:01:26;17.80;84.40
10344;DHT22;5217;43.960;10.954;2023-03-29T16:04:00;17.70;84.00
10344;DHT22;5217;43.960;10.954;2023-03-29T16:06:30;17.70;84.10